createdAt,value
2019-06-10T00:01:24.637Z,2.70
2019-06-10T00:03:55.475Z,2.87
2019-06-10T00:06:25.077Z,2.83
2019-06-10T00:08:56.034Z,3.13
2019-06-10T00:11:25.679Z,2.93
2019-06-10T00:13:56.521Z,3.63
2019-06-10T00:16:26.294Z,3.13
2019-06-10T00:18:55.960Z,2.93
2019-06-10T00:21:25.519Z,2.87
2019-06-10T00:23:55.020Z,3.03
2019-06-10T00:26:24.585Z,2.90
2019-06-10T00:28:54.144Z,3.23
2019-06-10T00:31:23.648Z,3.37
2019-06-10T00:33:53.209Z,3.13
2019-06-10T00:36:22.777Z,3.07
2019-06-10T00:38:52.345Z,3.20
2019-06-10T00:41:22.119Z,3.10
2019-06-10T00:43:51.862Z,3.30
2019-06-10T00:46:21.417Z,3.00
2019-06-10T00:48:51.061Z,3.27
2019-06-10T00:51:21.088Z,3.43
2019-06-10T00:53:51.362Z,2.63
2019-06-10T00:56:21.753Z,3.00
2019-06-10T00:58:51.544Z,3.30
2019-06-10T01:01:21.967Z,2.80
2019-06-10T01:03:51.829Z,3.03
2019-06-10T01:06:21.565Z,3.17
2019-06-10T01:08:51.420Z,3.10
2019-06-10T01:11:26.755Z,2.97
2019-06-10T01:13:52.249Z,3.07
2019-06-10T01:16:21.910Z,2.90
2019-06-10T01:19:12.791Z,2.87
2019-06-10T01:21:42.049Z,3.30
2019-06-10T01:24:31.394Z,3.17
2019-06-10T01:27:01.351Z,3.50
2019-06-10T01:29:32.509Z,3.30
2019-06-10T01:32:02.064Z,3.30
2019-06-10T01:34:31.561Z,3.10
2019-06-10T01:37:01.536Z,3.10
2019-06-10T01:39:31.172Z,3.80
2019-06-10T01:42:00.733Z,4.07
2019-06-10T01:44:31.004Z,3.43
2019-06-10T01:47:01.091Z,3.23
2019-06-10T01:49:30.889Z,3.13
2019-06-10T01:52:01.641Z,3.30
2019-06-10T01:54:31.800Z,3.33
2019-06-10T01:57:01.593Z,3.20
2019-06-10T01:59:31.345Z,3.17
2019-06-10T02:02:05.429Z,3.13
2019-06-10T02:04:35.089Z,3.10
2019-06-10T02:07:04.724Z,2.87
2019-06-10T02:09:34.395Z,3.17
2019-06-10T02:12:04.134Z,3.27
2019-06-10T02:14:33.963Z,3.80
2019-06-10T02:17:03.601Z,3.17
2019-06-10T02:19:33.159Z,3.60
2019-06-10T02:22:03.497Z,3.30
2019-06-10T02:24:33.052Z,2.63
2019-06-10T02:27:03.009Z,3.33
2019-06-10T02:29:32.587Z,3.87
2019-06-10T02:32:04.808Z,3.43
2019-06-10T02:34:42.838Z,3.40
2019-06-10T02:37:05.766Z,3.20
2019-06-10T02:39:39.076Z,3.10
2019-06-10T02:42:08.407Z,3.77
2019-06-10T02:44:38.059Z,3.20
2019-06-10T02:47:07.560Z,3.10
2019-06-10T02:49:55.830Z,3.33
2019-06-10T02:52:28.625Z,2.90
2019-06-10T02:55:15.296Z,2.97
2019-06-10T02:57:44.811Z,3.17
2019-06-10T03:00:20.640Z,3.00
2019-06-10T03:02:45.493Z,3.10
2019-06-10T03:05:17.576Z,2.83
2019-06-10T03:07:46.590Z,3.20
2019-06-10T03:10:18.531Z,3.07
2019-06-10T03:12:48.093Z,3.20
2019-06-10T03:15:19.862Z,2.90
2019-06-10T03:17:52.121Z,3.13
2019-06-10T03:20:28.413Z,2.97
2019-06-10T03:22:58.185Z,2.83
2019-06-10T03:25:27.846Z,3.20
2019-06-10T03:27:57.405Z,3.10
2019-06-10T03:30:44.196Z,3.43
2019-06-10T03:32:58.246Z,3.70
2019-06-10T03:35:28.495Z,3.20
2019-06-10T03:37:58.264Z,3.30
2019-06-10T03:40:27.836Z,3.50
2019-06-10T03:42:57.384Z,3.30
2019-06-10T03:45:28.402Z,3.10
2019-06-10T03:47:58.205Z,2.80
2019-06-10T03:50:28.747Z,3.50
2019-06-10T03:53:01.126Z,3.07
2019-06-10T03:55:29.699Z,3.10
2019-06-10T03:57:59.184Z,3.30
2019-06-10T04:00:28.980Z,2.83
2019-06-10T04:02:58.685Z,3.00
2019-06-10T04:05:28.905Z,3.33
2019-06-10T04:07:59.018Z,3.67
2019-06-10T04:10:29.625Z,3.13
2019-06-10T04:12:59.548Z,3.40
2019-06-10T04:15:29.570Z,3.43
2019-06-10T04:18:00.048Z,3.40
2019-06-10T04:20:29.732Z,3.20
2019-06-10T04:22:59.344Z,4.03
2019-06-10T04:25:29.592Z,3.53
2019-06-10T04:28:00.180Z,3.50
2019-06-10T04:30:32.366Z,3.60
2019-06-10T04:33:02.332Z,3.73
2019-06-10T04:35:33.657Z,3.60
2019-06-10T04:38:03.435Z,3.63
2019-06-10T04:40:33.025Z,3.47
2019-06-10T04:43:03.044Z,3.47
2019-06-10T04:45:32.723Z,4.50
2019-06-10T04:48:03.025Z,3.43
2019-06-10T04:50:41.516Z,3.50
2019-06-10T04:53:04.093Z,3.57
2019-06-10T04:55:33.658Z,3.40
2019-06-10T04:58:03.257Z,3.50
2019-06-10T05:00:33.239Z,3.67
2019-06-10T05:03:03.044Z,3.27
2019-06-10T05:05:32.909Z,4.17
2019-06-10T05:08:02.794Z,3.70
2019-06-10T05:10:33.204Z,3.27
2019-06-10T05:13:03.263Z,4.00
2019-06-10T05:15:35.054Z,3.67
2019-06-10T05:18:04.154Z,3.70
2019-06-10T05:20:51.018Z,3.63
2019-06-10T05:23:05.072Z,3.87
2019-06-10T05:25:34.631Z,4.43
2019-06-10T05:28:25.979Z,4.17
2019-06-10T05:30:56.130Z,3.63
2019-06-10T05:33:26.939Z,4.43
2019-06-10T05:35:56.742Z,3.50
2019-06-10T05:38:27.517Z,3.83
2019-06-10T05:40:57.533Z,3.80
2019-06-10T05:43:27.864Z,3.40
2019-06-10T05:45:57.529Z,4.37
2019-06-10T05:48:28.283Z,3.43
2019-06-10T05:51:02.889Z,4.23
2019-06-10T05:53:29.291Z,3.50
2019-06-10T05:55:58.964Z,3.90
2019-06-10T05:58:29.374Z,3.77
2019-06-10T06:00:58.949Z,4.00
2019-06-10T06:03:29.753Z,3.63
2019-06-10T06:05:59.494Z,3.50
2019-06-10T06:08:29.174Z,3.30
2019-06-10T06:11:07.496Z,3.60
2019-06-10T06:13:40.258Z,3.50
2019-06-10T06:16:13.353Z,3.30
2019-06-10T06:21:42.098Z,3.97
2019-06-10T06:24:06.656Z,3.53
2019-06-10T06:26:38.055Z,4.20
2019-06-10T06:29:13.045Z,3.50
2019-06-10T06:31:43.141Z,3.37
2019-06-10T06:34:13.827Z,3.57
2019-06-10T06:36:43.658Z,3.40
2019-06-10T06:39:13.224Z,3.50
2019-06-10T06:41:43.057Z,3.57
2019-06-10T06:44:17.336Z,3.53
2019-06-10T06:46:47.332Z,3.70
2019-06-10T06:49:16.905Z,3.20
2019-06-10T06:51:54.621Z,3.77
2019-06-10T06:54:23.011Z,3.20
2019-06-10T06:56:53.556Z,3.17
2019-06-10T06:59:33.868Z,3.60
2019-06-10T07:02:04.419Z,3.43
2019-06-10T07:04:38.648Z,3.43
2019-06-10T07:07:13.212Z,3.30
2019-06-10T07:09:47.642Z,3.30
2019-06-10T07:12:20.153Z,3.03
2019-06-10T07:14:52.620Z,3.30
2019-06-10T07:17:22.864Z,3.70
2019-06-10T07:19:53.017Z,3.97
2019-06-10T07:22:23.437Z,2.97
2019-06-10T07:24:53.131Z,3.80
2019-06-10T07:27:22.771Z,3.43
2019-06-10T07:29:52.939Z,3.97
2019-06-10T07:32:22.866Z,4.00
2019-06-10T07:34:52.631Z,4.27
2019-06-10T07:37:23.816Z,4.00
2019-06-10T07:39:53.797Z,3.80
2019-06-10T07:42:23.472Z,4.40
2019-06-10T07:44:53.401Z,3.23
2019-06-10T07:47:23.271Z,3.30
2019-06-10T07:49:52.881Z,4.00
2019-06-10T07:52:23.499Z,3.93
2019-06-10T07:54:53.241Z,3.40
2019-06-10T07:57:22.906Z,3.30
2019-06-10T07:59:52.528Z,3.40
2019-06-10T08:02:23.065Z,3.90
2019-06-10T08:04:54.180Z,3.40
2019-06-10T08:07:24.184Z,3.30
2019-06-10T08:09:53.845Z,3.60
2019-06-10T08:12:23.498Z,3.30
2019-06-10T08:14:53.452Z,3.57
2019-06-10T08:17:23.140Z,3.40
2019-06-10T08:19:54.262Z,3.03
2019-06-10T08:22:37.289Z,3.30
2019-06-10T08:24:56.019Z,3.13
2019-06-10T08:27:25.605Z,3.30
2019-06-10T08:30:14.402Z,3.37
2019-06-10T08:32:27.876Z,3.53
2019-06-10T08:34:57.448Z,3.43
2019-06-10T08:37:27.005Z,3.23
2019-06-10T08:39:56.581Z,3.00
2019-06-10T08:42:26.237Z,3.30
2019-06-10T08:44:55.749Z,3.73
2019-06-10T08:47:26.105Z,3.90
2019-06-10T08:50:06.259Z,4.33
2019-06-10T08:52:50.692Z,3.50
2019-06-10T08:55:07.442Z,3.73
2019-06-10T08:57:38.433Z,3.50
2019-06-10T09:00:14.268Z,3.40
2019-06-10T09:02:41.911Z,3.20
2019-06-10T09:05:16.741Z,4.10
2019-06-10T09:07:50.903Z,3.27
2019-06-10T09:10:19.640Z,3.33
2019-06-10T09:12:53.683Z,3.57
2019-06-10T09:15:23.521Z,3.40
2019-06-10T09:17:56.084Z,3.80
2019-06-10T09:20:25.789Z,3.73
2019-06-10T09:23:16.934Z,3.40
2019-06-10T09:25:27.048Z,3.20
2019-06-10T09:27:56.645Z,3.47
2019-06-10T09:30:26.694Z,2.87
2019-06-10T09:32:57.597Z,2.77
2019-06-10T09:35:27.637Z,3.17
2019-06-10T09:37:57.219Z,3.10
2019-06-10T09:40:48.906Z,3.10
2019-06-10T09:43:17.898Z,3.10
2019-06-10T09:45:50.286Z,3.03
2019-06-10T09:48:22.870Z,3.40
2019-06-10T09:50:57.823Z,3.60
2019-06-10T09:53:39.301Z,3.30
2019-06-10T09:56:04.285Z,3.20
2019-06-10T09:58:37.513Z,3.67
2019-06-10T10:01:20.249Z,3.50
2019-06-10T10:03:59.843Z,3.10
2019-06-10T10:06:32.700Z,2.87
2019-06-10T10:09:10.757Z,3.45
2019-06-10T10:11:48.903Z,3.67
2019-06-10T10:14:23.182Z,3.20
2019-06-10T10:16:59.809Z,3.10
2019-06-10T10:19:27.376Z,3.30
2019-06-10T10:22:00.061Z,3.00
2019-06-10T10:24:33.451Z,3.00
2019-06-10T10:27:09.253Z,3.42
2019-06-10T10:29:42.574Z,3.27
2019-06-10T10:32:13.889Z,3.62
2019-06-10T10:34:47.019Z,3.42
2019-06-10T10:37:17.861Z,3.20
2019-06-10T10:39:56.464Z,3.10
2019-06-10T10:42:41.636Z,3.17
2019-06-10T10:45:02.748Z,3.20
2019-06-10T10:47:33.970Z,3.25
2019-06-10T10:50:13.849Z,3.37
2019-06-10T10:52:46.364Z,3.60
2019-06-10T10:55:16.942Z,3.30
2019-06-10T10:57:49.297Z,3.70
2019-06-10T11:00:22.688Z,3.80
2019-06-10T11:02:53.094Z,3.40
2019-06-10T11:05:37.467Z,4.00
2019-06-10T11:08:08.301Z,3.90
2019-06-10T11:10:37.867Z,3.50
2019-06-10T11:13:09.608Z,4.13
2019-06-10T11:15:39.399Z,3.70
2019-06-10T11:18:12.609Z,3.27
2019-06-10T11:20:45.195Z,3.80
2019-06-10T11:23:16.106Z,3.60
2019-06-10T11:25:49.859Z,3.75
2019-06-10T11:28:22.972Z,3.98
2019-06-10T11:30:56.734Z,3.50
2019-06-10T11:33:26.223Z,3.55
2019-06-10T11:35:59.253Z,3.58
2019-06-10T11:38:32.814Z,3.72
2019-06-10T11:41:14.159Z,3.75
2019-06-10T11:43:46.265Z,3.27
2019-06-10T11:46:17.398Z,4.03
2019-06-10T11:48:47.530Z,4.33
2019-06-10T11:51:18.946Z,4.45
2019-06-10T11:53:52.918Z,4.00
2019-06-10T11:56:23.519Z,4.13
2019-06-10T11:58:56.922Z,4.30
2019-06-10T12:01:42.604Z,4.00
2019-06-10T12:04:13.770Z,3.70
2019-06-10T12:06:45.956Z,4.22
2019-06-10T12:09:20.753Z,4.17
2019-06-10T12:11:54.689Z,4.17
2019-06-10T12:14:26.813Z,4.33
2019-06-10T12:17:31.089Z,4.00
2019-06-10T12:19:47.012Z,3.67
2019-06-10T12:22:19.096Z,4.10
2019-06-10T12:25:06.225Z,5.00
2019-06-10T12:27:23.722Z,3.85
2019-06-10T12:30:07.873Z,3.98
2019-06-10T12:32:42.417Z,4.42
2019-06-10T12:35:13.710Z,4.47
2019-06-10T12:37:46.919Z,4.75
2019-06-10T12:40:17.551Z,4.23
2019-06-10T12:42:48.702Z,4.37
2019-06-10T12:45:23.219Z,3.50
2019-06-10T12:47:55.338Z,3.85
2019-06-10T12:50:42.658Z,4.57
2019-06-10T12:53:13.262Z,3.57
2019-06-10T12:55:47.155Z,4.40
2019-06-10T12:58:22.412Z,4.20
2019-06-10T13:01:08.061Z,4.20
2019-06-10T13:03:43.249Z,3.53
2019-06-10T13:06:15.081Z,3.90
2019-06-10T13:08:49.119Z,4.03
2019-06-10T13:11:20.460Z,3.90
2019-06-10T13:13:56.129Z,4.23
2019-06-10T13:16:26.007Z,3.67
2019-06-10T13:18:56.230Z,3.70
2019-06-10T13:21:27.792Z,3.70
2019-06-10T13:23:59.471Z,3.72
2019-06-10T13:26:32.336Z,4.15
2019-06-10T13:29:05.014Z,3.58
2019-06-10T13:31:33.804Z,3.70
2019-06-10T13:34:10.682Z,3.60
2019-06-10T13:36:36.129Z,4.05
2019-06-10T13:39:10.346Z,4.00
2019-06-10T13:41:43.470Z,3.60
2019-06-10T13:44:16.551Z,3.75
2019-06-10T13:46:45.272Z,3.55
2019-06-10T13:49:29.395Z,3.87
2019-06-10T13:52:03.114Z,3.90
2019-06-10T13:54:32.516Z,4.10
2019-06-10T13:57:05.058Z,4.00
2019-06-10T13:59:39.825Z,4.08
2019-06-10T14:02:11.909Z,4.33
2019-06-10T14:04:47.546Z,4.60
2019-06-10T14:07:23.479Z,4.35
2019-06-10T14:10:17.606Z,4.10
2019-06-10T14:12:48.838Z,3.98
2019-06-10T14:15:22.653Z,3.73
2019-06-10T14:17:54.314Z,4.72
2019-06-10T14:20:24.381Z,4.37
2019-06-10T14:22:55.379Z,4.30
2019-06-10T14:25:26.388Z,3.50
2019-06-10T14:27:57.652Z,4.20
2019-06-10T14:30:29.411Z,4.25
2019-06-10T14:33:04.083Z,4.03
2019-06-10T14:35:36.138Z,4.03
2019-06-10T14:38:06.586Z,3.90
2019-06-10T14:40:38.591Z,4.08
2019-06-10T14:43:10.337Z,4.30
2019-06-10T14:45:42.737Z,3.87
2019-06-10T14:48:17.667Z,3.85
2019-06-10T14:50:48.115Z,4.77
2019-06-10T14:53:18.635Z,4.80
2019-06-10T14:55:52.908Z,4.17
2019-06-10T14:58:23.621Z,4.17
2019-06-10T15:00:54.699Z,4.50
2019-06-10T15:03:25.541Z,4.60
2019-06-10T15:05:56.274Z,4.50
2019-06-10T15:08:26.299Z,4.30
2019-06-10T15:10:56.848Z,4.27
2019-06-10T15:13:27.060Z,4.67
2019-06-10T15:15:57.897Z,3.93
2019-06-10T15:18:28.911Z,3.97
2019-06-10T15:21:02.506Z,4.60
2019-06-10T15:23:33.488Z,4.77
2019-06-10T15:26:04.122Z,4.10
2019-06-10T15:28:38.105Z,4.50
2019-06-10T15:31:10.901Z,4.10
2019-06-10T15:33:43.144Z,4.43
2019-06-10T15:36:13.292Z,4.73
2019-06-10T15:38:44.092Z,4.70
2019-06-10T15:41:17.822Z,3.90
2019-06-10T15:43:48.790Z,4.07
2019-06-10T15:46:20.986Z,4.40
2019-06-10T15:48:54.332Z,4.40
2019-06-10T15:51:26.183Z,4.40
2019-06-10T15:53:56.070Z,4.30
2019-06-10T15:56:41.733Z,4.60
2019-06-10T15:59:02.956Z,4.20
2019-06-10T16:01:33.473Z,4.47
2019-06-10T16:04:04.850Z,4.73
2019-06-10T16:06:37.281Z,4.73
2019-06-10T16:09:08.634Z,4.37
2019-06-10T16:11:41.148Z,5.20
2019-06-10T16:14:12.683Z,4.73
2019-06-10T16:16:43.383Z,4.20
2019-06-10T16:19:15.093Z,4.80
2019-06-10T16:21:47.342Z,4.50
2019-06-10T16:24:19.076Z,4.97
2019-06-10T16:26:48.948Z,5.00
2019-06-10T16:29:19.131Z,5.00
2019-06-10T16:31:49.119Z,4.70
2019-06-10T16:34:21.246Z,5.10
2019-06-10T16:36:53.432Z,5.40
2019-06-10T16:39:26.822Z,5.90
2019-06-10T16:41:56.839Z,5.70
2019-06-10T16:44:28.185Z,5.70
2019-06-10T16:46:59.761Z,5.50
2019-06-10T16:49:32.660Z,6.13
2019-06-10T16:52:03.092Z,5.43
2019-06-10T16:54:34.981Z,5.87
2019-06-10T16:57:06.624Z,5.13
2019-06-10T16:59:36.880Z,5.17
2019-06-10T17:02:06.443Z,4.93
2019-06-10T17:04:38.264Z,5.57
2019-06-10T17:07:12.590Z,5.43
2019-06-10T17:09:42.431Z,5.63
2019-06-10T17:12:13.477Z,5.50
2019-06-10T17:14:45.055Z,6.10
2019-06-10T17:17:18.589Z,6.00
2019-06-10T17:19:50.776Z,5.80
2019-06-10T17:22:23.631Z,5.73
2019-06-10T17:25:13.067Z,5.80
2019-06-10T17:27:44.174Z,6.47
2019-06-10T17:30:16.654Z,6.47
2019-06-10T17:32:48.895Z,7.20
2019-06-10T17:35:20.078Z,6.57
2019-06-10T17:37:52.312Z,6.53
2019-06-10T17:40:26.066Z,7.40
2019-06-10T17:42:58.209Z,7.30
2019-06-10T17:45:30.915Z,6.60
2019-06-10T17:48:03.882Z,7.00
2019-06-10T17:50:38.499Z,7.07
2019-06-10T17:53:12.726Z,7.47
2019-06-10T17:55:44.088Z,7.70
2019-06-10T17:58:29.341Z,7.13
2019-06-10T18:01:06.339Z,6.67
2019-06-10T18:03:39.624Z,6.80
2019-06-10T18:06:08.663Z,7.33
2019-06-10T18:08:41.974Z,7.43
2019-06-10T18:11:14.813Z,7.37
2019-06-10T18:13:49.425Z,7.03
2019-06-10T18:16:22.781Z,6.83
2019-06-10T18:18:52.584Z,7.33
2019-06-10T18:21:26.297Z,6.77
2019-06-10T18:24:07.369Z,7.13
2019-06-10T18:26:30.899Z,7.70
2019-06-10T18:29:08.561Z,7.03
2019-06-10T18:31:35.677Z,6.37
2019-06-10T18:34:06.960Z,7.17
2019-06-10T18:36:42.718Z,7.80
2019-06-10T18:39:14.706Z,6.90
2019-06-10T18:41:46.003Z,6.30
2019-06-10T18:44:22.935Z,7.77
2019-06-10T18:46:50.322Z,6.63
2019-06-10T18:49:34.012Z,7.27
2019-06-10T18:52:06.454Z,7.43
2019-06-10T18:54:40.056Z,6.47
2019-06-10T18:57:17.109Z,7.20
2019-06-10T18:59:48.022Z,7.80
2019-06-10T19:02:22.499Z,7.27
2019-06-10T19:04:57.033Z,7.60
2019-06-10T19:07:35.384Z,7.03
2019-06-10T19:10:26.933Z,7.67
2019-06-10T19:12:57.390Z,7.40
2019-06-10T19:15:27.089Z,7.20
2019-06-10T19:18:03.154Z,7.13
2019-06-10T19:20:39.140Z,7.60
2019-06-10T19:23:16.346Z,7.23
2019-06-10T19:25:47.041Z,7.50
2019-06-10T19:28:18.991Z,7.87
2019-06-10T19:30:49.325Z,7.23
2019-06-10T19:33:23.495Z,7.73
2019-06-10T19:35:54.698Z,6.90
2019-06-10T19:38:26.696Z,7.30
2019-06-10T19:41:15.620Z,6.63
2019-06-10T19:43:48.111Z,6.90
2019-06-10T19:46:20.324Z,7.30
2019-06-10T19:48:58.484Z,7.43
2019-06-10T19:51:23.062Z,7.53
2019-06-10T19:53:56.096Z,7.27
2019-06-10T19:56:26.599Z,7.10
2019-06-10T19:58:57.065Z,6.90
2019-06-10T20:01:26.901Z,7.10
2019-06-10T20:03:57.035Z,7.20
2019-06-10T20:06:29.233Z,8.20
2019-06-10T20:09:02.709Z,8.07
2019-06-10T20:11:36.129Z,7.93
2019-06-10T20:14:07.142Z,7.30
2019-06-10T20:16:39.690Z,6.83
2019-06-10T20:19:09.937Z,7.33
2019-06-10T20:21:40.752Z,6.83
2019-06-10T20:24:12.559Z,7.07
2019-06-10T20:26:43.694Z,7.40
2019-06-10T20:29:15.258Z,6.33
2019-06-10T20:31:47.063Z,7.37
2019-06-10T20:34:22.374Z,5.93
2019-06-10T20:36:52.765Z,6.43
2019-06-10T20:39:24.838Z,7.50
2019-06-10T20:41:56.255Z,7.47
2019-06-10T20:44:26.124Z,7.13
2019-06-10T20:46:55.684Z,7.27
2019-06-10T20:49:25.272Z,7.60
2019-06-10T20:52:08.096Z,7.53
2019-06-10T20:54:26.169Z,7.17
2019-06-10T20:56:55.664Z,7.47
2019-06-10T20:59:26.234Z,7.33
2019-06-10T21:01:55.910Z,8.20
2019-06-10T21:04:25.563Z,7.47
2019-06-10T21:06:56.777Z,8.30
2019-06-10T21:09:26.823Z,8.23
2019-06-10T21:11:56.385Z,7.87
2019-06-10T21:14:25.894Z,8.30
2019-06-10T21:16:55.574Z,8.17
2019-06-10T21:19:25.306Z,7.93
2019-06-10T21:21:55.062Z,8.20
2019-06-10T21:24:24.730Z,7.50
2019-06-10T21:26:54.914Z,8.07
2019-06-10T21:29:24.659Z,8.20
2019-06-10T21:31:55.058Z,7.63
2019-06-10T21:34:24.781Z,8.90
2019-06-10T21:36:54.574Z,8.13
2019-06-10T21:39:29.078Z,8.23
2019-06-10T21:41:58.641Z,8.77
2019-06-10T21:44:28.214Z,8.43
2019-06-10T21:46:57.777Z,9.37
2019-06-10T21:49:27.286Z,8.37
2019-06-10T21:51:57.342Z,8.10
2019-06-10T21:54:26.917Z,9.93
2019-06-10T21:56:56.562Z,8.13
2019-06-10T21:59:26.134Z,7.87
2019-06-10T22:01:56.269Z,8.27
2019-06-10T22:04:25.924Z,7.90
2019-06-10T22:06:56.829Z,8.47
2019-06-10T22:09:26.469Z,8.47
2019-06-10T22:11:56.073Z,8.70
2019-06-10T22:14:25.644Z,8.90
2019-06-10T22:16:56.455Z,8.60
2019-06-10T22:19:26.172Z,8.97
2019-06-10T22:21:56.712Z,8.73
2019-06-10T22:24:26.443Z,10.10
2019-06-10T22:27:02.757Z,10.10
2019-06-10T22:29:33.159Z,9.77
2019-06-10T22:32:02.757Z,10.20
2019-06-10T22:34:32.954Z,9.33
2019-06-10T22:37:03.201Z,10.60
2019-06-10T22:39:35.990Z,9.93
2019-06-10T22:42:05.707Z,9.17
2019-06-10T22:44:35.214Z,10.20
2019-06-10T22:47:04.712Z,10.43
2019-06-10T22:49:34.290Z,10.67
2019-06-10T22:52:03.881Z,11.00
2019-06-10T22:54:33.393Z,10.67
2019-06-10T22:57:03.057Z,11.00
2019-06-10T22:59:32.580Z,10.77
2019-06-10T23:02:03.048Z,11.77
2019-06-10T23:04:33.296Z,9.83
2019-06-10T23:07:03.193Z,11.00
2019-06-10T23:09:32.914Z,10.47
2019-06-10T23:12:02.952Z,9.67
2019-06-10T23:14:33.201Z,10.23
2019-06-10T23:17:03.183Z,9.90
2019-06-10T23:19:33.251Z,9.60
2019-06-10T23:22:03.109Z,9.77
2019-06-10T23:24:34.751Z,8.63
2019-06-10T23:27:04.680Z,9.97
2019-06-10T23:29:35.873Z,9.77
2019-06-10T23:32:07.059Z,9.47
2019-06-10T23:34:36.960Z,10.40
2019-06-10T23:37:06.455Z,9.83
2019-06-10T23:39:35.957Z,9.37
2019-06-10T23:42:05.523Z,9.10
2019-06-10T23:44:35.025Z,10.97
2019-06-10T23:47:04.751Z,9.07
2019-06-10T23:49:34.242Z,9.53
2019-06-10T23:52:05.428Z,10.23
2019-06-10T23:54:35.440Z,9.17
2019-06-10T23:57:05.948Z,9.20
2019-06-10T23:59:36.037Z,9.23
